Gabbs, Nevada
Current Conditions -  °F | °C
As of 2:56 PM on Tuesday 25 Nov 2014 (Local Time) from KNFL Reporting Station
Scattered Clouds Scattered Clouds  
Wind Chill: 61°   Ceiling: Unl
Heat Index: 61°   Visibility: 10mi
Dew Point: 17°   Wind: 0mph
Humidity: 18%   Direction: NA
Pressure: 30.43"   Gusts: NA
Location:  38.87°N, 117.92°W
Report Text: KNFL 252256Z 00000KT 10SM FEW120 SCT200 16/M08 A3043 RMK AO2 SLP258 T01611083
Loading
Personal Weather Stations






























Interactive Weather Map New forecast layout! Learn more

10-Day Weather Forecast

Advertisements
Track Severe Weather on mobile